Time;durP1;ratioP1;P1;durP2;ratioP2;P2;SDS_P1;SDS_P2;PMS_P1;PMS_P2;Temp;Humidity;BMP_temperature;BMP_pressure;BME280_temperature;BME280_humidity;BME280_pressure;Samples;Min_cycle;Max_cycle;Signal;HPM_P1;HPM_P2
2023/07/09 00:01:36;;;;;;;0.60;0.60;;;18.60;77.50;;;;;;5076291;28;20652;-72
2023/07/09 00:04:02;;;;;;;1.38;0.70;;;18.60;77.60;;;;;;5058876;28;20171;-72
2023/07/09 00:06:28;;;;;;;2.78;1.02;;;18.60;77.60;;;;;;5065663;28;20267;-72
2023/07/09 00:08:54;;;;;;;0.80;0.80;;;18.60;77.60;;;;;;5080314;28;20227;-72
2023/07/09 00:11:20;;;;;;;2.92;0.73;;;18.60;77.90;;;;;;5077293;28;20191;-72
2023/07/09 00:13:45;;;;;;;0.70;0.70;;;18.60;77.30;;;;;;5064818;28;20251;-73
2023/07/09 00:16:18;;;;;;;2.40;0.77;;;18.60;77.30;;;;;;5071452;28;20175;-72
2023/07/09 00:18:44;;;;;;;0.70;0.70;;;18.70;76.90;;;;;;5064370;28;20214;-73
2023/07/09 00:21:10;;;;;;;0.80;0.80;;;18.70;76.90;;;;;;5067572;28;20183;-72
2023/07/09 00:23:38;;;;;;;2.92;0.90;;;18.80;76.30;;;;;;5076446;28;20671;-73
2023/07/09 00:26:09;;;;;;;0.50;0.50;;;18.80;76.10;;;;;;5045869;28;20225;-73
2023/07/09 00:28:35;;;;;;;0.70;0.68;;;18.90;75.90;;;;;;5056974;28;20194;-72
2023/07/09 00:31:01;;;;;;;1.70;0.90;;;18.90;75.90;;;;;;5070196;28;20167;-71
2023/07/09 00:33:31;;;;;;;0.60;0.60;;;;;;;;;;5069449;28;20190;-72
2023/07/09 00:35:57;;;;;;;0.60;0.60;;;18.90;76.10;;;;;;5070881;28;20175;-71
2023/07/09 00:38:23;;;;;;;0.93;0.93;;;18.90;75.80;;;;;;5070486;28;20182;-73
2023/07/09 00:41:17;;;;;;;0.60;0.60;;;18.80;76.00;;;;;;5069567;28;20285;-71
2023/07/09 00:43:43;;;;;;;0.70;0.70;;;18.80;75.50;;;;;;5058410;28;20214;-73
2023/07/09 00:46:25;;;;;;;0.60;0.60;;;19.00;75.10;;;;;;5072579;28;20186;-73
2023/07/09 00:48:57;;;;;;;0.70;0.70;;;19.00;75.10;;;;;;5063002;28;20174;-73
2023/07/09 00:51:24;;;;;;;0.70;0.70;;;19.00;75.00;;;;;;5062533;28;20664;-72
2023/07/09 00:53:53;;;;;;;0.75;0.70;;;19.00;74.90;;;;;;5072255;28;20181;-71
2023/07/09 00:56:33;;;;;;;0.80;0.80;;;19.00;74.90;;;;;;5075223;28;20270;-73
2023/07/09 00:59:04;;;;;;;4.38;0.70;;;19.00;74.90;;;;;;5066767;28;20253;-71
2023/07/09 01:01:31;;;;;;;0.90;0.65;;;19.00;75.00;;;;;;5072814;28;20202;-73
2023/07/09 01:03:59;;;;;;;0.65;0.65;;;19.00;74.90;;;;;;5064124;28;20195;-74
2023/07/09 01:06:35;;;;;;;0.52;0.52;;;19.00;74.90;;;;;;5061677;28;20214;-73
2023/07/09 01:09:02;;;;;;;0.70;0.70;;;18.90;74.80;;;;;;5053441;28;20244;-74
2023/07/09 01:11:28;;;;;;;0.95;0.93;;;19.00;74.70;;;;;;5071269;28;20183;-72
2023/07/09 01:14:00;;;;;;;0.70;0.70;;;19.00;74.70;;;;;;5074067;28;20240;-71
2023/07/09 01:16:31;;;;;;;1.63;0.57;;;19.00;74.70;;;;;;5067519;28;20572;-71
2023/07/09 01:18:57;;;;;;;1.92;0.70;;;19.00;74.60;;;;;;5064069;28;20225;-71
2023/07/09 01:21:23;;;;;;;0.60;0.60;;;19.00;74.60;;;;;;5065898;28;20228;-72
2023/07/09 01:23:51;;;;;;;0.65;0.65;;;19.00;74.60;;;;;;5071780;28;20183;-74
2023/07/09 01:26:20;;;;;;;0.77;0.77;;;19.00;74.70;;;;;;5071787;28;20615;-71
2023/07/09 01:28:46;;;;;;;0.47;0.47;;;19.00;74.70;;;;;;5071557;28;20269;-71
2023/07/09 01:31:14;;;;;;;0.88;0.88;;;19.00;74.70;;;;;;5069346;28;20676;-72
2023/07/09 01:33:44;;;;;;;0.77;0.77;;;18.90;75.00;;;;;;5068426;28;20190;-73
2023/07/09 01:36:13;;;;;;;1.00;1.00;;;18.70;75.40;;;;;;5051585;28;20969;-73
2023/07/09 01:38:40;;;;;;;0.52;0.52;;;18.60;75.60;;;;;;5051745;28;20186;-73
2023/07/09 01:41:06;;;;;;;2.10;0.75;;;18.60;75.70;;;;;;5070137;28;20174;-71
2023/07/09 01:43:34;;;;;;;2.03;0.80;;;18.60;75.50;;;;;;5071800;28;20309;-71
2023/07/09 01:46:00;;;;;;;0.70;0.70;;;18.60;75.70;;;;;;5073467;28;20225;-71
2023/07/09 01:48:26;;;;;;;1.15;0.80;;;18.60;75.80;;;;;;5073572;28;20228;-71
2023/07/09 01:50:54;;;;;;;0.65;0.65;;;18.60;75.70;;;;;;5071750;28;20549;-71
2023/07/09 01:53:26;;;;;;;0.82;0.63;;;18.50;75.90;;;;;;5086945;28;20974;-73
2023/07/09 01:55:54;;;;;;;0.77;0.77;;;18.50;76.10;;;;;;5074100;28;20166;-73
2023/07/09 01:58:24;;;;;;;1.05;0.68;;;18.50;76.10;;;;;;5075708;28;20206;-73
2023/07/09 02:00:50;;;;;;;0.60;0.60;;;18.40;76.60;;;;;;5072829;28;20616;-73
2023/07/09 02:03:17;;;;;;;0.60;0.60;;;18.20;76.80;;;;;;5071243;28;20213;-73
2023/07/09 02:05:43;;;;;;;0.60;0.55;;;18.20;76.90;;;;;;5053288;28;20191;-71
2023/07/09 02:08:09;;;;;;;0.45;0.45;;;18.20;77.00;;;;;;5069286;28;20244;-72
2023/07/09 02:10:35;;;;;;;0.80;0.80;;;;;;;;;;5066485;28;20649;-73
2023/07/09 02:13:01;;;;;;;0.60;0.50;;;18.20;77.40;;;;;;5074658;28;20189;-72
2023/07/09 02:15:26;;;;;;;1.08;0.93;;;18.10;77.40;;;;;;5069542;28;20191;-72
2023/07/09 02:17:52;;;;;;;0.80;0.80;;;18.00;77.70;;;;;;5072654;28;20189;-72
2023/07/09 02:20:19;;;;;;;1.20;0.70;;;17.90;78.00;;;;;;5071205;28;20183;-70
2023/07/09 02:22:45;;;;;;;0.88;0.88;;;17.80;78.20;;;;;;5074615;28;20676;-73
2023/07/09 02:25:11;;;;;;;0.60;0.60;;;17.80;78.30;;;;;;5075750;28;20192;-71
2023/07/09 02:27:37;;;;;;;0.60;0.60;;;17.70;78.60;;;;;;5078159;28;20314;-73
2023/07/09 02:30:05;;;;;;;0.77;0.77;;;17.70;78.80;;;;;;5064374;28;20183;-73
2023/07/09 02:32:30;;;;;;;1.00;1.00;;;17.70;78.90;;;;;;5078691;28;20185;-73
2023/07/09 02:34:57;;;;;;;0.75;0.70;;;17.60;79.10;;;;;;5063503;28;20750;-73
2023/07/09 02:37:24;;;;;;;0.82;0.80;;;17.60;79.20;;;;;;5075596;28;20174;-73
2023/07/09 02:39:50;;;;;;;0.73;0.73;;;17.50;79.20;;;;;;5083538;28;20235;-74
2023/07/09 02:42:18;;;;;;;0.88;0.88;;;17.50;79.50;;;;;;5073445;28;20206;-73
2023/07/09 02:44:44;;;;;;;0.75;0.75;;;17.50;79.30;;;;;;5058535;28;20666;-71
2023/07/09 02:47:10;;;;;;;0.90;0.90;;;17.50;79.70;;;;;;5072497;28;20564;-73
2023/07/09 02:49:36;;;;;;;0.70;0.70;;;17.50;79.50;;;;;;5071357;28;20183;-73
2023/07/09 02:52:02;;;;;;;0.90;0.90;;;17.50;79.50;;;;;;5065809;28;20670;-74
2023/07/09 02:54:28;;;;;;;0.65;0.65;;;17.40;79.60;;;;;;5074331;28;20179;-74
2023/07/09 02:56:54;;;;;;;1.02;0.70;;;;;;;;;;5076521;28;20271;-73
2023/07/09 02:59:20;;;;;;;0.60;0.60;;;17.40;80.10;;;;;;5072094;28;20209;-71
2023/07/09 03:01:47;;;;;;;2.67;0.57;;;17.40;79.80;;;;;;5072089;28;20707;-72
2023/07/09 03:04:13;;;;;;;0.60;0.60;;;17.40;80.00;;;;;;5064636;28;20244;-71
2023/07/09 03:06:40;;;;;;;1.45;1.13;;;17.50;79.50;;;;;;5071161;28;20175;-73
2023/07/09 03:09:06;;;;;;;0.70;0.70;;;17.50;79.70;;;;;;5074636;28;20185;-73
2023/07/09 03:11:34;;;;;;;0.60;0.60;;;17.40;79.60;;;;;;5076898;28;20182;-73
2023/07/09 03:14:00;;;;;;;1.05;1.05;;;17.50;79.60;;;;;;5062495;28;20241;-73
2023/07/09 03:16:28;;;;;;;1.15;0.80;;;17.60;78.90;;;;;;5060815;28;20198;-71
2023/07/09 03:18:54;;;;;;;1.33;0.60;;;17.60;79.20;;;;;;5063627;28;20179;-71
2023/07/09 03:21:21;;;;;;;0.75;0.75;;;17.70;78.60;;;;;;5069409;28;20179;-71
2023/07/09 03:23:47;;;;;;;0.90;0.90;;;17.70;79.30;;;;;;5076286;28;20186;-71
2023/07/09 03:26:13;;;;;;;0.77;0.77;;;17.60;79.30;;;;;;5067043;28;20179;-73
2023/07/09 03:28:38;;;;;;;0.80;0.80;;;17.70;78.90;;;;;;5065065;28;20174;-72
2023/07/09 03:31:04;;;;;;;0.75;0.75;;;17.70;79.10;;;;;;5061976;28;20537;-72
2023/07/09 03:33:30;;;;;;;0.95;0.95;;;17.70;79.40;;;;;;5077807;28;20193;-72
2023/07/09 03:35:56;;;;;;;0.90;0.90;;;17.80;79.20;;;;;;5070690;28;20198;-72
2023/07/09 03:38:21;;;;;;;0.80;0.80;;;17.80;79.70;;;;;;5070141;28;20190;-72
2023/07/09 03:40:53;;;;;;;2.15;0.80;;;17.80;79.70;;;;;;5072509;28;20293;-72
2023/07/09 03:43:20;;;;;;;0.70;0.70;;;17.60;81.10;;;;;;5071544;28;20293;-72
2023/07/09 03:45:46;;;;;;;0.82;0.82;;;17.60;81.40;;;;;;5071184;28;20179;-72
2023/07/09 03:48:13;;;;;;;0.82;0.82;;;17.40;82.10;;;;;;5075425;28;20683;-72
2023/07/09 03:50:39;;;;;;;0.90;0.90;;;17.40;82.10;;;;;;5070320;28;20175;-71
2023/07/09 03:53:08;;;;;;;1.08;1.08;;;17.40;82.60;;;;;;5074045;28;20201;-72
2023/07/09 03:55:33;;;;;;;1.40;1.30;;;17.30;82.70;;;;;;5071026;28;20179;-72
2023/07/09 03:57:59;;;;;;;3.53;1.08;;;17.30;83.10;;;;;;5067796;28;20201;-72
2023/07/09 04:00:25;;;;;;;1.27;0.80;;;;;;;;;;5068703;28;20190;-72
2023/07/09 04:02:51;;;;;;;0.63;0.63;;;17.20;82.80;;;;;;5070044;28;20207;-72
2023/07/09 04:05:17;;;;;;;0.98;0.98;;;17.20;83.10;;;;;;5062714;28;20194;-73
2023/07/09 04:07:43;;;;;;;0.90;0.90;;;17.30;83.10;;;;;;5070120;28;20644;-72
2023/07/09 04:10:10;;;;;;;0.90;0.90;;;17.30;82.50;;;;;;5073768;28;20191;-72
2023/07/09 04:12:36;;;;;;;0.88;0.80;;;17.40;81.90;;;;;;5067106;28;20264;-72
2023/07/09 04:15:03;;;;;;;0.70;0.70;;;17.50;81.30;;;;;;5068058;28;20172;-72
2023/07/09 04:17:29;;;;;;;0.93;0.90;;;17.60;81.20;;;;;;5069609;28;20264;-72
2023/07/09 04:19:55;;;;;;;1.98;0.85;;;17.70;81.30;;;;;;5067949;28;20206;-72
2023/07/09 04:22:21;;;;;;;1.00;0.90;;;17.80;81.20;;;;;;5069365;28;20206;-72
2023/07/09 04:24:47;;;;;;;1.00;1.00;;;17.90;81.00;;;;;;5069015;28;20179;-72
2023/07/09 04:27:13;;;;;;;1.42;1.38;;;17.90;80.80;;;;;;5071710;28;20256;-72
2023/07/09 04:29:40;;;;;;;2.47;1.20;;;17.90;80.80;;;;;;5045252;28;20183;-72
2023/07/09 04:32:13;;;;;;;1.75;0.77;;;18.00;80.50;;;;;;5071903;28;20203;-72
2023/07/09 04:34:39;;;;;;;0.85;0.85;;;18.00;80.80;;;;;;5067310;28;20183;-72
2023/07/09 04:37:08;;;;;;;1.10;1.10;;;18.10;80.80;;;;;;5060717;28;20707;-72
2023/07/09 04:39:34;;;;;;;0.90;0.90;;;18.10;80.70;;;;;;5052644;28;20186;-72
2023/07/09 04:42:00;;;;;;;0.93;0.93;;;;;;;;;;5072631;28;20210;-72
2023/07/09 04:44:26;;;;;;;0.57;0.57;;;18.20;80.60;;;;;;5070152;28;20253;-72
2023/07/09 04:46:52;;;;;;;1.38;1.15;;;;;;;;;;5069061;28;20274;-72
2023/07/09 04:49:18;;;;;;;0.98;0.90;;;;;;;;;;5072962;28;20186;-73
2023/07/09 04:51:43;;;;;;;1.00;1.00;;;18.30;80.70;;;;;;5066303;28;20218;-72
2023/07/09 04:54:09;;;;;;;1.20;1.20;;;;;;;;;;5072180;28;20203;-72
2023/07/09 04:56:37;;;;;;;1.17;0.70;;;;;;;;;;5073135;28;20214;-72
2023/07/09 04:59:03;;;;;;;0.95;0.93;;;18.20;81.20;;;;;;5066475;28;20183;-74
2023/07/09 05:01:28;;;;;;;1.20;0.98;;;18.10;81.10;;;;;;5064300;28;20254;-72
2023/07/09 05:03:55;;;;;;;1.10;1.10;;;18.20;80.70;;;;;;5075199;28;20193;-71
2023/07/09 05:06:21;;;;;;;0.77;0.77;;;18.30;81.00;;;;;;5067759;28;20187;-73
2023/07/09 05:08:48;;;;;;;0.82;0.80;;;18.40;80.50;;;;;;5073757;28;20216;-73
2023/07/09 05:11:14;;;;;;;1.33;1.23;;;18.50;80.40;;;;;;5074012;28;20236;-73
2023/07/09 05:13:40;;;;;;;2.35;1.05;;;18.50;80.10;;;;;;5056189;28;20717;-73
2023/07/09 05:16:06;;;;;;;0.90;0.90;;;18.60;79.80;;;;;;5068234;28;20236;-73
2023/07/09 05:18:32;;;;;;;2.28;0.93;;;18.70;78.60;;;;;;5073413;28;20702;-73
2023/07/09 05:20:58;;;;;;;0.75;0.75;;;18.80;78.60;;;;;;5068312;28;20262;-72
2023/07/09 05:23:26;;;;;;;1.25;0.90;;;19.00;78.30;;;;;;5069883;28;20224;-73
2023/07/09 05:25:59;;;;;;;0.95;0.95;;;19.10;77.60;;;;;;5068093;28;20179;-72
2023/07/09 05:28:25;;;;;;;3.05;0.90;;;19.20;77.20;;;;;;5062597;28;20195;-73
2023/07/09 05:30:51;;;;;;;1.38;1.23;;;19.30;77.30;;;;;;5070641;28;20171;-72
2023/07/09 05:33:20;;;;;;;0.70;0.70;;;19.50;76.80;;;;;;5069016;28;20194;-72
2023/07/09 05:35:46;;;;;;;1.50;0.90;;;;;;;;;;5051957;28;20232;-72
2023/07/09 05:38:13;;;;;;;2.60;0.90;;;19.50;76.30;;;;;;5062984;28;20179;-73
2023/07/09 05:40:39;;;;;;;1.05;0.98;;;19.60;76.40;;;;;;5069060;28;20690;-72
2023/07/09 05:43:05;;;;;;;1.05;1.02;;;19.60;76.60;;;;;;5069527;28;20214;-73
2023/07/09 05:45:31;;;;;;;0.88;0.88;;;19.70;76.20;;;;;;5069106;28;20171;-71
2023/07/09 05:47:58;;;;;;;1.25;1.17;;;19.70;76.20;;;;;;5069352;28;20187;-71
2023/07/09 05:50:25;;;;;;;1.35;1.13;;;19.70;76.00;;;;;;5074775;28;20601;-73
2023/07/09 05:52:51;;;;;;;0.88;0.82;;;;;;;;;;5073547;28;20692;-73
2023/07/09 05:55:17;;;;;;;0.90;0.90;;;;;;;;;;5064145;28;20186;-75
2023/07/09 05:57:43;;;;;;;0.82;0.82;;;19.70;76.30;;;;;;5069792;28;20179;-72
2023/07/09 06:00:09;;;;;;;0.80;0.80;;;19.70;76.00;;;;;;5069642;28;20202;-72
2023/07/09 06:02:35;;;;;;;1.65;0.90;;;19.70;76.50;;;;;;5066087;28;20242;-72
2023/07/09 06:05:01;;;;;;;1.23;1.08;;;19.70;76.80;;;;;;5070495;28;20629;-73
2023/07/09 06:07:27;;;;;;;0.80;0.80;;;;;;;;;;5070819;28;20191;-73
2023/07/09 06:09:53;;;;;;;1.00;1.00;;;19.90;77.10;;;;;;5066911;28;20194;-73
2023/07/09 06:12:19;;;;;;;1.63;1.10;;;;;;;;;;5067437;28;20600;-73
2023/07/09 06:14:46;;;;;;;1.25;0.80;;;19.90;77.30;;;;;;5074706;28;20790;-72
2023/07/09 06:17:12;;;;;;;3.92;0.98;;;19.90;76.90;;;;;;5077384;28;20265;-72
2023/07/09 06:19:38;;;;;;;1.27;0.90;;;20.00;77.10;;;;;;5069417;28;20198;-71
2023/07/09 06:22:04;;;;;;;1.52;1.02;;;;;;;;;;5070075;28;20213;-72
2023/07/09 06:24:30;;;;;;;1.00;1.00;;;;;;;;;;5068683;28;20171;-72
2023/07/09 06:26:56;;;;;;;1.05;0.95;;;;;;;;;;5068736;28;20179;-72
2023/07/09 06:29:22;;;;;;;0.77;0.77;;;20.10;76.70;;;;;;5054207;28;20175;-71
2023/07/09 06:31:48;;;;;;;0.93;0.93;;;20.10;76.40;;;;;;5073922;28;20183;-73
2023/07/09 06:34:14;;;;;;;1.33;1.23;;;;;;;;;;5072745;28;20265;-71
2023/07/09 06:36:40;;;;;;;1.60;0.88;;;;;;;;;;5075299;28;20660;-72
2023/07/09 06:39:06;;;;;;;1.00;1.00;;;20.30;77.00;;;;;;5067699;28;20188;-71
2023/07/09 06:41:38;;;;;;;0.93;0.93;;;20.30;75.70;;;;;;5071920;28;20240;-72
2023/07/09 06:44:07;;;;;;;0.80;0.80;;;20.40;75.80;;;;;;5067822;28;20568;-71
2023/07/09 06:46:34;;;;;;;0.90;0.90;;;20.50;75.70;;;;;;5065866;28;20262;-72
2023/07/09 06:49:00;;;;;;;1.00;1.00;;;20.60;75.00;;;;;;5075504;28;20254;-71
2023/07/09 06:51:26;;;;;;;0.80;0.80;;;;;;;;;;5073762;28;20581;-71
2023/07/09 06:53:52;;;;;;;0.90;0.90;;;;;;;;;;5071319;28;20686;-72
2023/07/09 06:56:18;;;;;;;0.88;0.88;;;;;;;;;;5072276;28;20180;-71
2023/07/09 06:58:47;;;;;;;0.80;0.80;;;;;;;;;;5071557;28;20193;-71
2023/07/09 07:01:13;;;;;;;0.82;0.82;;;;;;;;;;5075959;28;20204;-71
2023/07/09 07:03:39;;;;;;;0.93;0.93;;;;;;;;;;5071000;28;20241;-71
2023/07/09 07:06:06;;;;;;;0.90;0.90;;;20.90;74.10;;;;;;5069587;28;20179;-71
2023/07/09 07:08:33;;;;;;;1.52;0.75;;;21.00;73.40;;;;;;5052923;28;20285;-72
2023/07/09 07:11:05;;;;;;;0.85;0.85;;;21.00;73.10;;;;;;5067629;28;20576;-71
2023/07/09 07:13:41;;;;;;;1.13;1.00;;;21.00;73.10;;;;;;5070929;28;20191;-72
2023/07/09 07:16:09;;;;;;;0.77;0.77;;;20.90;73.30;;;;;;5074850;28;20191;-72
2023/07/09 07:18:34;;;;;;;2.90;1.10;;;21.00;73.10;;;;;;5069537;28;20172;-73
2023/07/09 07:21:01;;;;;;;4.13;0.95;;;21.00;73.00;;;;;;5070695;28;20186;-72
2023/07/09 07:23:27;;;;;;;1.77;0.80;;;21.00;72.90;;;;;;5053280;28;20219;-72
2023/07/09 07:25:54;;;;;;;1.08;1.05;;;;;;;;;;5069626;28;20210;-71
2023/07/09 07:28:20;;;;;;;0.77;0.75;;;;;;;;;;5066179;28;20320;-72
2023/07/09 07:30:46;;;;;;;1.20;1.20;;;;;;;;;;5069486;28;20258;-72
2023/07/09 07:33:14;;;;;;;1.02;1.00;;;21.30;73.30;;;;;;5070152;28;20191;-73
2023/07/09 07:35:40;;;;;;;0.82;0.82;;;;;;;;;;5065928;28;20229;-73
2023/07/09 07:38:06;;;;;;;0.77;0.77;;;;;;;;;;5067243;28;20214;-72
2023/07/09 07:40:32;;;;;;;1.85;0.70;;;21.50;72.70;;;;;;5066712;28;20762;-76
2023/07/09 07:42:58;;;;;;;0.63;0.63;;;;;;;;;;5069985;28;20206;-73
2023/07/09 07:45:24;;;;;;;1.58;0.90;;;;;;;;;;5067868;28;20190;-73
2023/07/09 07:47:51;;;;;;;1.10;1.10;;;;;;;;;;5056576;28;20175;-72
2023/07/09 07:50:17;;;;;;;0.50;0.50;;;21.70;71.30;;;;;;5076123;28;20579;-71
2023/07/09 07:52:43;;;;;;;0.75;0.75;;;21.80;72.20;;;;;;5072251;28;20179;-71
2023/07/09 07:55:09;;;;;;;1.00;0.93;;;21.90;71.60;;;;;;5079666;28;20320;-72
2023/07/09 07:57:35;;;;;;;0.88;0.88;;;22.00;71.60;;;;;;5074902;28;20205;-69
2023/07/09 08:00:01;;;;;;;1.17;1.10;;;22.00;71.40;;;;;;5069910;28;20230;-73
2023/07/09 08:02:26;;;;;;;0.90;0.88;;;21.90;69.40;;;;;;5073082;28;20231;-72
2023/07/09 08:04:52;;;;;;;0.90;0.90;;;22.00;70.30;;;;;;5077732;28;20182;-72
2023/07/09 08:07:19;;;;;;;0.88;0.88;;;22.00;70.30;;;;;;5074339;28;20182;-70
2023/07/09 08:09:46;;;;;;;1.02;1.02;;;22.10;70.10;;;;;;5069325;28;20484;-72
2023/07/09 08:12:12;;;;;;;0.75;0.70;;;22.10;71.00;;;;;;5073796;28;20182;-71
2023/07/09 08:14:40;;;;;;;2.08;0.90;;;22.20;71.50;;;;;;5077557;28;20723;-71
2023/07/09 08:17:07;;;;;;;3.33;0.82;;;22.10;69.80;;;;;;5075812;28;20289;-71
2023/07/09 08:19:43;;;;;;;0.73;0.73;;;22.10;69.90;;;;;;5073613;28;20175;-71
2023/07/09 08:22:09;;;;;;;1.20;1.10;;;;;;;;;;5072990;28;20228;-71
2023/07/09 08:24:35;;;;;;;1.08;0.93;;;22.20;69.40;;;;;;5075287;28;20261;-71
2023/07/09 08:27:01;;;;;;;0.90;0.90;;;22.20;68.70;;;;;;5070795;28;20358;-73
2023/07/09 08:29:26;;;;;;;0.80;0.80;;;22.30;69.60;;;;;;5069654;28;20186;-72
2023/07/09 08:31:52;;;;;;;0.70;0.68;;;22.50;70.10;;;;;;5068023;28;20190;-72
2023/07/09 08:34:18;;;;;;;0.77;0.77;;;22.50;70.00;;;;;;5073467;28;20193;-72
2023/07/09 08:36:44;;;;;;;1.00;1.00;;;22.40;70.20;;;;;;5076270;28;20175;-72
2023/07/09 08:39:12;;;;;;;0.85;0.85;;;22.50;71.20;;;;;;5075322;28;20273;-71
2023/07/09 08:41:48;;;;;;;0.90;0.90;;;22.60;71.30;;;;;;5072721;28;20591;-71
2023/07/09 08:44:37;;;;;;;1.38;0.93;;;22.70;69.90;;;;;;5074479;28;20187;-72
2023/07/09 08:47:18;;;;;;;1.10;1.10;;;22.80;69.80;;;;;;5056896;28;20803;-71
2023/07/09 08:49:56;;;;;;;1.15;1.05;;;22.70;69.70;;;;;;5072177;28;20219;-71
2023/07/09 08:52:31;;;;;;;0.88;0.77;;;22.80;70.60;;;;;;5079969;28;20185;-70
2023/07/09 08:54:59;;;;;;;1.00;1.00;;;22.90;70.60;;;;;;5073727;28;20225;-71
2023/07/09 08:58:05;;;;;;;0.98;0.95;;;23.00;70.70;;;;;;5080684;28;20667;-71
2023/07/09 09:00:56;;;;;;;0.90;0.90;;;23.10;70.60;;;;;;5068355;28;20198;-72
2023/07/09 09:03:35;;;;;;;0.90;0.90;;;23.30;70.80;;;;;;5071916;28;20229;-71
2023/07/09 09:06:01;;;;;;;1.13;1.13;;;23.50;70.40;;;;;;5062219;28;20185;-69
2023/07/09 09:08:38;;;;;;;1.00;1.00;;;23.70;69.60;;;;;;5073308;28;20198;-73
2023/07/09 09:11:30;;;;;;;1.00;1.00;;;23.80;69.60;;;;;;5067025;28;20253;-73
2023/07/09 09:14:02;;;;;;;0.95;0.95;;;23.80;69.50;;;;;;5039043;28;20766;-72
2023/07/09 09:16:36;;;;;;;1.15;0.95;;;23.90;69.20;;;;;;5067024;28;20244;-72
2023/07/09 09:19:03;;;;;;;1.30;1.30;;;23.90;67.50;;;;;;5068834;28;20654;-73
2023/07/09 09:21:35;;;;;;;0.80;0.80;;;23.90;68.40;;;;;;5071196;28;20178;-72
2023/07/09 09:24:19;;;;;;;0.93;0.93;;;24.00;68.30;;;;;;5069892;28;20190;-73
2023/07/09 09:26:46;;;;;;;0.85;0.85;;;24.10;67.70;;;;;;5068427;28;20268;-72
2023/07/09 09:29:15;;;;;;;1.23;1.23;;;24.20;66.70;;;;;;5071573;28;20182;-72
2023/07/09 09:31:44;;;;;;;0.95;0.95;;;24.20;67.10;;;;;;5067233;28;20179;-72
2023/07/09 09:34:29;;;;;;;0.93;0.93;;;24.30;68.20;;;;;;5071783;28;20243;-74
2023/07/09 09:36:56;;;;;;;0.93;0.93;;;24.50;68.50;;;;;;5072969;28;20256;-71
2023/07/09 09:39:26;;;;;;;1.38;1.38;;;24.60;67.70;;;;;;5072537;28;20877;-74
2023/07/09 09:41:55;;;;;;;1.13;1.00;;;24.80;68.20;;;;;;5074926;28;20170;-73
2023/07/09 09:44:26;;;;;;;1.23;1.13;;;24.80;66.10;;;;;;5065448;28;20634;-75
2023/07/09 09:46:55;;;;;;;1.30;1.17;;;24.90;65.30;;;;;;5070134;28;20236;-73
2023/07/09 09:49:21;;;;;;;0.98;0.98;;;24.90;65.00;;;;;;5070471;28;20552;-73
2023/07/09 09:51:48;;;;;;;0.95;0.93;;;24.90;65.50;;;;;;5072688;28;20198;-73
2023/07/09 09:54:20;;;;;;;1.10;1.10;;;24.90;65.50;;;;;;5071634;28;20207;-73
2023/07/09 09:56:49;;;;;;;2.70;1.05;;;25.00;64.80;;;;;;5070133;28;20236;-72
2023/07/09 09:59:30;;;;;;;3.28;1.10;;;25.10;65.60;;;;;;5071156;28;20206;-72
2023/07/09 10:02:20;;;;;;;1.02;1.02;;;25.20;64.30;;;;;;5072087;28;20210;-72
2023/07/09 10:04:46;;;;;;;1.08;1.00;;;25.30;64.00;;;;;;5073029;28;20276;-72
2023/07/09 10:07:19;;;;;;;1.23;0.93;;;25.50;65.20;;;;;;5079657;28;20316;-72
2023/07/09 10:09:52;;;;;;;1.80;0.95;;;25.60;65.20;;;;;;5072909;28;20187;-73
2023/07/09 10:12:45;;;;;;;1.10;1.02;;;25.90;65.00;;;;;;5077662;28;20770;-72
2023/07/09 10:15:14;;;;;;;0.88;0.88;;;26.10;64.50;;;;;;5059768;28;20182;-72
2023/07/09 10:17:55;;;;;;;0.90;0.90;;;26.30;61.40;;;;;;5077363;28;20187;-71
2023/07/09 10:20:30;;;;;;;2.03;1.20;;;26.40;62.10;;;;;;5071066;28;20209;-71
2023/07/09 10:23:25;;;;;;;1.27;1.27;;;26.50;62.00;;;;;;5070559;28;20217;-71
2023/07/09 10:26:06;;;;;;;0.80;0.80;;;26.70;62.10;;;;;;5072710;28;20183;-72
2023/07/09 10:28:38;;;;;;;0.90;0.90;;;27.00;61.10;;;;;;5076447;28;20210;-72
2023/07/09 10:31:39;;;;;;;1.00;1.00;;;27.30;61.70;;;;;;5074279;28;20173;-70
2023/07/09 10:34:13;;;;;;;1.02;1.02;;;27.60;59.80;;;;;;5069024;28;20245;-70
2023/07/09 10:36:54;;;;;;;0.95;0.95;;;28.00;59.60;;;;;;5055103;28;20237;-71
2023/07/09 10:39:26;;;;;;;1.35;1.25;;;28.50;57.70;;;;;;5069396;28;20190;-72
2023/07/09 10:41:57;;;;;;;1.27;1.27;;;28.70;57.40;;;;;;5072876;28;20201;-72
2023/07/09 10:44:40;;;;;;;1.02;1.02;;;28.80;57.80;;;;;;5057797;28;20193;-72
2023/07/09 10:47:17;;;;;;;1.10;1.10;;;29.30;57.00;;;;;;5072882;28;20213;-72
2023/07/09 10:49:43;;;;;;;1.10;1.10;;;30.10;54.60;;;;;;5075660;28;20183;-72
2023/07/09 10:52:28;;;;;;;1.27;1.27;;;30.70;53.20;;;;;;5065873;28;21199;-71
2023/07/09 10:55:17;;;;;;;0.98;0.98;;;31.10;52.70;;;;;;5082412;28;20238;-72
2023/07/09 10:57:57;;;;;;;1.38;1.27;;;31.50;53.20;;;;;;5068004;28;20243;-72
2023/07/09 11:00:35;;;;;;;0.80;0.80;;;31.90;51.10;;;;;;5050870;28;20201;-72
2023/07/09 11:03:24;;;;;;;0.90;0.90;;;32.40;52.40;;;;;;5070167;28;20667;-72
2023/07/09 11:05:51;;;;;;;1.13;1.13;;;32.40;50.30;;;;;;5068994;28;20193;-72
2023/07/09 11:08:36;;;;;;;1.02;1.02;;;32.50;50.50;;;;;;5071089;28;20187;-72
2023/07/09 11:11:07;;;;;;;0.82;0.82;;;32.80;48.70;;;;;;5064544;28;20229;-72
2023/07/09 11:13:45;;;;;;;1.13;1.13;;;33.00;49.00;;;;;;5070251;28;20614;-71
2023/07/09 11:16:27;;;;;;;0.85;0.85;;;33.40;48.60;;;;;;5066691;28;20193;-71
2023/07/09 11:18:58;;;;;;;2.53;1.08;;;33.70;48.20;;;;;;5069048;28;20680;-71
2023/07/09 11:21:24;;;;;;;1.17;1.17;;;;;;;;;;5070368;28;20179;-72
2023/07/09 11:23:55;;;;;;;1.00;1.00;;;34.00;48.50;;;;;;5069714;28;20229;-72
2023/07/09 11:26:27;;;;;;;2.05;1.17;;;34.10;49.00;;;;;;5063052;28;20186;-72
2023/07/09 11:29:14;;;;;;;0.90;0.90;;;34.20;47.50;;;;;;5072091;28;20950;-71
2023/07/09 11:31:47;;;;;;;0.80;0.80;;;34.30;48.10;;;;;;5073489;28;20270;-71
2023/07/09 11:34:12;;;;;;;1.95;1.00;;;34.70;47.50;;;;;;5075218;28;20205;-71
2023/07/09 11:37:00;;;;;;;0.90;0.90;;;35.00;49.40;;;;;;5076917;28;20614;-72
2023/07/09 11:39:32;;;;;;;0.75;0.75;;;35.10;46.30;;;;;;5077695;28;20185;-72
2023/07/09 11:41:58;;;;;;;0.73;0.73;;;35.10;50.40;;;;;;5071456;28;20672;-72
2023/07/09 11:44:24;;;;;;;2.20;0.80;;;;;;;;;;5075039;28;20209;-73
2023/07/09 11:47:17;;;;;;;0.85;0.85;;;35.70;46.80;;;;;;5062076;28;20209;-72
2023/07/09 11:49:59;;;;;;;0.90;0.90;;;35.80;47.00;;;;;;5080355;28;20218;-70
2023/07/09 11:52:40;;;;;;;0.90;0.90;;;35.70;48.10;;;;;;5073854;28;20185;-71
2023/07/09 11:55:26;;;;;;;1.10;1.10;;;35.70;48.70;;;;;;5070919;28;20179;-72
2023/07/09 11:58:01;;;;;;;1.10;1.00;;;35.80;47.30;;;;;;5066672;28;20194;-71
2023/07/09 12:00:44;;;;;;;2.05;1.38;;;35.60;50.50;;;;;;5075405;28;20281;-73
2023/07/09 12:03:39;;;;;;;1.15;0.93;;;35.20;48.40;;;;;;5076496;28;20205;-72
2023/07/09 12:06:19;;;;;;;0.90;0.90;;;35.10;48.90;;;;;;5071840;28;20194;-73
2023/07/09 12:08:46;;;;;;;2.05;1.00;;;35.40;48.70;;;;;;5071978;28;20190;-72
2023/07/09 12:11:22;;;;;;;1.10;1.10;;;35.80;49.10;;;;;;5076796;28;20297;-76
2023/07/09 12:13:48;;;;;;;0.90;0.90;;;;;;;;;;5071410;28;20185;-79
2023/07/09 12:16:29;;;;;;;1.67;0.90;;;36.80;46.90;;;;;;5075539;28;20182;-75
2023/07/09 12:18:55;;;;;;;1.00;1.00;;;37.20;45.90;;;;;;5074816;28;20244;-75
2023/07/09 12:21:22;;;;;;;1.08;0.90;;;36.80;46.10;;;;;;5073884;28;20266;-73
2023/07/09 12:23:49;;;;;;;1.15;1.15;;;36.30;46.70;;;;;;5075732;28;20217;-73
2023/07/09 12:26:17;;;;;;;2.15;1.10;;;36.10;46.90;;;;;;5073560;28;20271;-73
2023/07/09 12:28:48;;;;;;;1.52;0.93;;;36.10;47.10;;;;;;5072293;28;20184;-73
2023/07/09 12:31:15;;;;;;;1.75;1.05;;;35.90;46.60;;;;;;5073746;28;20247;-76
2023/07/09 12:33:49;;;;;;;4.13;1.10;;;35.70;47.20;;;;;;5073259;28;20252;-78
2023/07/09 12:36:18;;;;;;;0.85;0.85;;;35.80;50.90;;;;;;5070238;28;20572;-72
2023/07/09 12:38:46;;;;;;;1.10;1.10;;;36.30;47.80;;;;;;5074449;28;20182;-73
2023/07/09 12:41:28;;;;;;;1.67;1.10;;;36.90;46.80;;;;;;5079758;28;20174;-72
2023/07/09 12:43:55;;;;;;;0.73;0.73;;;37.00;45.50;;;;;;5076446;28;20691;-72
2023/07/09 12:46:22;;;;;;;2.25;1.08;;;37.30;49.10;;;;;;5072347;28;20541;-72
2023/07/09 12:48:48;;;;;;;1.38;1.27;;;37.70;48.50;;;;;;5077276;28;20179;-73
2023/07/09 12:51:20;;;;;;;0.80;0.80;;;38.20;45.10;;;;;;5079301;28;20196;-73
2023/07/09 12:53:45;;;;;;;1.00;1.00;;;38.70;44.00;;;;;;5072612;28;20635;-72
2023/07/09 12:56:13;;;;;;;1.20;1.20;;;38.60;43.70;;;;;;5079415;28;20261;-73
2023/07/09 12:58:39;;;;;;;2.78;1.40;;;38.30;43.70;;;;;;5055162;28;20567;-73
2023/07/09 13:01:12;;;;;;;1.08;1.05;;;38.30;45.90;;;;;;5073651;28;20178;-73
2023/07/09 13:03:37;;;;;;;0.95;0.95;;;38.10;46.50;;;;;;5066087;28;20206;-73
2023/07/09 13:06:07;;;;;;;0.73;0.73;;;38.20;45.30;;;;;;5072334;28;20628;-73
2023/07/09 13:08:41;;;;;;;0.80;0.80;;;38.10;44.20;;;;;;5061106;28;20178;-73
2023/07/09 13:11:18;;;;;;;0.98;0.98;;;37.80;44.60;;;;;;5046619;28;20585;-73